createdAt,value
2018-11-05T00:01:07.427Z,11.60
2018-11-05T00:03:36.445Z,11.58
2018-11-05T00:06:05.975Z,11.56
2018-11-05T00:08:34.984Z,11.58
2018-11-05T00:11:03.986Z,11.52
2018-11-05T00:13:33.053Z,11.64
2018-11-05T00:16:02.061Z,11.63
2018-11-05T00:18:31.030Z,11.59
2018-11-05T00:21:00.039Z,11.55
2018-11-05T00:23:29.034Z,11.60
2018-11-05T00:25:58.011Z,11.69
2018-11-05T00:28:27.015Z,11.76
2018-11-05T00:30:55.998Z,11.72
2018-11-05T00:33:25.058Z,11.71
2018-11-05T00:35:54.095Z,11.68
2018-11-05T00:38:23.109Z,11.59
2018-11-05T00:40:52.103Z,11.54
2018-11-05T00:43:21.100Z,11.49
2018-11-05T00:45:50.168Z,11.47
2018-11-05T00:48:19.087Z,11.48
2018-11-05T00:50:48.202Z,11.42
2018-11-05T00:53:17.190Z,11.49
2018-11-05T00:55:46.274Z,11.54
2018-11-05T00:58:15.624Z,11.73
2018-11-05T01:00:44.574Z,11.73
2018-11-05T01:03:13.562Z,11.85
2018-11-05T01:05:42.594Z,11.74
2018-11-05T01:08:11.603Z,11.69
2018-11-05T01:10:40.618Z,11.65
2018-11-05T01:13:09.610Z,11.61
2018-11-05T01:15:38.628Z,11.60
2018-11-05T01:18:07.599Z,11.59
2018-11-05T01:20:36.606Z,11.54
2018-11-05T01:23:05.591Z,11.51
2018-11-05T01:25:34.570Z,11.49
2018-11-05T01:28:03.574Z,11.48
2018-11-05T01:30:32.580Z,11.47
2018-11-05T01:33:01.594Z,11.47
2018-11-05T01:35:30.639Z,11.48
2018-11-05T01:37:59.751Z,11.47
2018-11-05T01:40:28.741Z,11.50
2018-11-05T01:42:57.715Z,11.48
2018-11-05T01:45:26.745Z,11.38
2018-11-05T01:47:55.851Z,11.35
2018-11-05T01:50:24.844Z,11.26
2018-11-05T01:52:53.837Z,11.25
2018-11-05T01:55:22.823Z,11.24
2018-11-05T01:57:51.794Z,11.24
2018-11-05T02:00:20.798Z,11.31
2018-11-05T02:02:49.802Z,11.26
2018-11-05T02:05:19.039Z,11.21
2018-11-05T02:07:48.018Z,11.22
2018-11-05T02:10:19.075Z,11.24
2018-11-05T02:12:48.015Z,11.23
2018-11-05T02:15:17.272Z,11.27
2018-11-05T02:17:46.839Z,11.23
2018-11-05T02:20:16.723Z,11.25
2018-11-05T02:22:45.858Z,11.28
2018-11-05T02:25:15.074Z,11.30
2018-11-05T02:27:44.068Z,11.28
2018-11-05T02:30:15.296Z,11.17
2018-11-05T02:32:44.573Z,11.09
2018-11-05T02:35:14.284Z,11.03
2018-11-05T02:37:43.958Z,11.06
2018-11-05T02:40:14.338Z,10.85
2018-11-05T02:42:43.904Z,10.81
2018-11-05T02:45:14.041Z,10.86
2018-11-05T02:47:43.046Z,10.83
2018-11-05T02:50:12.842Z,10.72
2018-11-05T02:52:42.622Z,10.67
2018-11-05T02:55:11.630Z,10.64
2018-11-05T02:57:40.649Z,10.62
2018-11-05T03:00:12.082Z,10.65
2018-11-05T03:02:41.370Z,10.60
2018-11-05T03:05:12.716Z,10.66
2018-11-05T03:07:41.994Z,10.63
2018-11-05T03:10:11.755Z,10.60
2018-11-05T03:12:41.446Z,10.52
2018-11-05T03:15:12.812Z,10.50
2018-11-05T03:17:41.811Z,10.37
2018-11-05T03:20:11.882Z,10.24
2018-11-05T03:22:41.514Z,10.11
2018-11-05T03:25:10.586Z,10.01
2018-11-05T03:27:39.905Z,9.97
2018-11-05T03:30:14.309Z,9.93
2018-11-05T03:32:43.435Z,9.88
2018-11-05T03:35:13.152Z,9.89
2018-11-05T03:37:42.957Z,10.00
2018-11-05T03:40:12.939Z,10.30
2018-11-05T03:42:42.310Z,10.10
2018-11-05T03:45:12.578Z,10.00
2018-11-05T03:47:41.545Z,9.93
2018-11-05T03:50:13.171Z,9.86
2018-11-05T03:52:42.641Z,9.86
2018-11-05T03:55:11.974Z,9.89
2018-11-05T03:57:40.951Z,9.93
2018-11-05T04:00:11.487Z,9.86
2018-11-05T04:02:40.674Z,9.85
2018-11-05T04:05:09.820Z,9.89
2018-11-05T04:07:39.282Z,9.97
2018-11-05T04:10:09.183Z,10.00
2018-11-05T04:12:38.163Z,10.05
2018-11-05T04:15:07.432Z,10.08
2018-11-05T04:17:36.434Z,10.13
2018-11-05T04:20:07.879Z,10.16
2018-11-05T04:22:36.878Z,10.20
2018-11-05T04:25:05.887Z,10.24
2018-11-05T04:27:34.865Z,10.30
2018-11-05T04:30:04.121Z,10.31
2018-11-05T04:32:33.123Z,10.35
2018-11-05T04:35:02.278Z,10.36
2018-11-05T04:37:31.246Z,10.38
2018-11-05T04:40:00.238Z,10.36
2018-11-05T04:42:29.238Z,10.36
2018-11-05T04:44:58.338Z,10.37
2018-11-05T04:47:27.344Z,10.39
2018-11-05T04:49:56.339Z,10.36
2018-11-05T04:52:25.360Z,10.31
2018-11-05T04:54:54.463Z,10.28
2018-11-05T04:57:23.466Z,10.21
2018-11-05T04:59:52.454Z,10.15
2018-11-05T05:02:21.554Z,10.15
2018-11-05T05:04:50.556Z,10.06
2018-11-05T05:07:19.522Z,10.09
2018-11-05T05:09:48.514Z,10.15
2018-11-05T05:12:17.554Z,10.03
2018-11-05T05:14:46.552Z,10.02
2018-11-05T05:17:15.574Z,9.97
2018-11-05T05:19:44.676Z,9.88
2018-11-05T05:22:13.650Z,9.88
2018-11-05T05:24:42.655Z,9.87
2018-11-05T05:27:11.683Z,10.00
2018-11-05T05:29:40.724Z,9.98
2018-11-05T05:32:09.882Z,10.03
2018-11-05T05:34:38.892Z,10.06
2018-11-05T05:37:07.973Z,10.12
2018-11-05T05:39:36.971Z,10.12
2018-11-05T05:42:06.270Z,10.08
2018-11-05T05:44:35.278Z,10.06
2018-11-05T05:47:04.258Z,10.05
2018-11-05T05:49:33.258Z,10.12
2018-11-05T05:52:02.230Z,10.43
2018-11-05T05:54:31.363Z,10.24
2018-11-05T05:57:00.359Z,10.11
2018-11-05T05:59:29.334Z,10.03
2018-11-05T06:01:58.351Z,10.01
2018-11-05T06:04:27.726Z,9.81
2018-11-05T06:06:56.776Z,9.66
2018-11-05T06:09:25.750Z,9.56
2018-11-05T06:11:54.749Z,9.43
2018-11-05T06:14:23.751Z,9.28
2018-11-05T06:16:52.730Z,9.46
2018-11-05T06:19:21.830Z,9.40
2018-11-05T06:21:50.892Z,9.24
2018-11-05T06:24:19.818Z,9.12
2018-11-05T06:26:48.800Z,9.10
2018-11-05T06:29:17.863Z,9.07
2018-11-05T06:31:46.909Z,8.99
2018-11-05T06:34:15.946Z,9.04
2018-11-05T06:36:44.917Z,9.01
2018-11-05T06:39:14.282Z,8.93
2018-11-05T06:41:43.613Z,8.88
2018-11-05T06:44:12.564Z,8.80
2018-11-05T06:46:41.512Z,8.86
2018-11-05T06:49:10.519Z,8.81
2018-11-05T06:51:39.590Z,8.81
2018-11-05T06:54:08.587Z,8.84
2018-11-05T06:56:38.170Z,8.88
2018-11-05T06:59:07.171Z,8.89
2018-11-05T07:01:36.171Z,9.00
2018-11-05T07:04:05.438Z,9.01
2018-11-05T07:06:34.432Z,9.04
2018-11-05T07:09:03.464Z,9.07
2018-11-05T07:11:32.501Z,9.06
2018-11-05T07:14:01.484Z,9.17
2018-11-05T07:16:30.450Z,9.19
2018-11-05T07:18:59.706Z,9.23
2018-11-05T07:21:28.764Z,9.25
2018-11-05T07:23:57.866Z,9.28
2018-11-05T07:26:26.977Z,9.32
2018-11-05T07:28:55.949Z,9.41
2018-11-05T07:31:25.299Z,9.46
2018-11-05T07:33:54.458Z,9.48
2018-11-05T07:36:23.322Z,9.54
2018-11-05T07:38:52.327Z,9.59
2018-11-05T07:41:21.315Z,9.63
2018-11-05T07:43:50.334Z,9.68
2018-11-05T07:46:19.316Z,9.69
2018-11-05T07:48:48.294Z,9.72
2018-11-05T07:51:17.283Z,9.78
2018-11-05T07:53:46.293Z,9.81
2018-11-05T07:56:15.289Z,9.81
2018-11-05T07:58:44.270Z,9.85
2018-11-05T08:01:13.244Z,9.90
2018-11-05T08:03:42.297Z,9.90
2018-11-05T08:06:11.279Z,9.97
2018-11-05T08:08:40.366Z,10.00
2018-11-05T08:11:09.372Z,10.04
2018-11-05T08:13:38.370Z,10.12
2018-11-05T08:16:07.408Z,10.25
2018-11-05T08:18:36.447Z,10.48
2018-11-05T08:21:05.559Z,10.71
2018-11-05T08:23:34.563Z,10.81
2018-11-05T08:26:03.534Z,10.92
2018-11-05T08:28:32.547Z,11.04
2018-11-05T08:31:01.691Z,11.19
2018-11-05T08:33:30.722Z,11.32
2018-11-05T08:35:59.714Z,11.52
2018-11-05T08:38:28.715Z,11.68
2018-11-05T08:40:57.681Z,11.74
2018-11-05T08:43:26.950Z,11.77
2018-11-05T08:45:55.962Z,11.72
2018-11-05T08:48:24.978Z,11.81
2018-11-05T08:50:54.140Z,11.81
2018-11-05T08:53:23.065Z,11.72
2018-11-05T08:55:52.042Z,11.72
2018-11-05T08:58:21.070Z,11.71
2018-11-05T09:01:21.938Z,11.77
2018-11-05T09:03:51.002Z,11.80
2018-11-05T09:06:19.986Z,12.14
2018-11-05T09:08:49.000Z,12.35
2018-11-05T09:11:18.424Z,12.47
2018-11-05T09:13:47.072Z,12.50
2018-11-05T09:16:16.157Z,12.52
2018-11-05T09:18:45.166Z,12.59
2018-11-05T09:21:14.164Z,12.68
2018-11-05T09:23:43.167Z,12.64
2018-11-05T09:26:12.146Z,12.68
2018-11-05T09:28:41.173Z,12.71
2018-11-05T09:31:10.167Z,12.74
2018-11-05T09:33:39.191Z,12.81
2018-11-05T09:36:08.257Z,12.87
2018-11-05T09:38:37.294Z,12.88
2018-11-05T09:41:07.522Z,12.85
2018-11-05T09:43:36.695Z,12.81
2018-11-05T09:46:05.943Z,12.86
2018-11-05T09:48:34.922Z,13.10
2018-11-05T09:51:04.056Z,13.17
2018-11-05T09:53:33.051Z,13.20
2018-11-05T09:56:02.023Z,13.16
2018-11-05T09:58:31.037Z,13.30
2018-11-05T10:01:00.007Z,13.36
2018-11-05T10:03:29.300Z,13.35
2018-11-05T10:05:58.054Z,13.41
2018-11-05T10:08:27.052Z,13.67
2018-11-05T10:10:56.048Z,13.73
2018-11-05T10:13:25.034Z,13.63
2018-11-05T10:15:54.011Z,13.60
2018-11-05T10:18:23.023Z,13.53
2018-11-05T10:20:52.095Z,13.60
2018-11-05T10:23:21.101Z,13.50
2018-11-05T10:25:50.082Z,13.55
2018-11-05T10:28:19.102Z,13.61
2018-11-05T10:30:48.155Z,13.64
2018-11-05T10:33:17.177Z,13.63
2018-11-05T10:35:51.582Z,13.81
2018-11-05T10:38:20.771Z,13.82
2018-11-05T10:40:49.758Z,13.94
2018-11-05T10:43:18.744Z,14.06
2018-11-05T10:45:47.747Z,13.92
2018-11-05T10:48:16.724Z,13.89
2018-11-05T10:50:45.789Z,13.89
2018-11-05T10:53:14.731Z,13.75
2018-11-05T10:55:43.734Z,13.66
2018-11-05T10:58:12.839Z,13.67
2018-11-05T11:00:47.077Z,13.59
2018-11-05T11:03:18.747Z,13.65
2018-11-05T11:05:47.767Z,13.62
2018-11-05T11:08:16.766Z,13.71
2018-11-05T11:10:45.794Z,13.74
2018-11-05T11:13:14.795Z,13.76
2018-11-05T11:15:43.802Z,13.79
2018-11-05T11:18:12.819Z,13.81
2018-11-05T11:20:41.807Z,13.76
2018-11-05T11:23:10.818Z,13.82
2018-11-05T11:25:39.803Z,13.95
2018-11-05T11:28:08.860Z,14.03
2018-11-05T11:30:37.803Z,14.13
2018-11-05T11:33:06.783Z,14.03
2018-11-05T11:35:35.801Z,14.02
2018-11-05T11:38:05.142Z,14.13
2018-11-05T11:40:34.182Z,14.23
2018-11-05T11:43:03.174Z,14.11
2018-11-05T11:45:32.283Z,14.14
2018-11-05T11:48:01.295Z,14.11
2018-11-05T11:50:30.279Z,14.18
2018-11-05T11:52:59.339Z,14.17
2018-11-05T11:55:28.272Z,14.26
2018-11-05T11:57:57.295Z,14.15
2018-11-05T12:00:27.142Z,14.16
2018-11-05T12:02:56.126Z,14.03
2018-11-05T12:05:25.359Z,14.06
2018-11-05T12:07:54.263Z,14.06
2018-11-05T12:10:24.309Z,14.15
2018-11-05T12:12:53.322Z,14.09
2018-11-05T12:15:22.847Z,14.13
2018-11-05T12:17:52.699Z,14.27
2018-11-05T12:20:22.895Z,14.66
2018-11-05T12:22:52.477Z,14.76
2018-11-05T12:25:21.482Z,15.11
2018-11-05T12:27:50.489Z,15.35
2018-11-05T12:30:20.901Z,15.65
2018-11-05T12:32:50.714Z,15.95
2018-11-05T12:35:19.698Z,15.91
2018-11-05T12:37:49.737Z,15.72
2018-11-05T12:40:19.619Z,15.52
2018-11-05T12:42:49.559Z,15.37
2018-11-05T12:45:18.626Z,15.13
2018-11-05T12:47:47.675Z,14.91
2018-11-05T12:50:22.909Z,14.85
2018-11-05T12:52:53.115Z,14.73
2018-11-05T12:55:22.139Z,14.78
2018-11-05T12:57:51.140Z,14.88
2018-11-05T13:00:21.715Z,14.89
2018-11-05T13:02:53.091Z,14.95
2018-11-05T13:05:22.765Z,14.92
2018-11-05T13:07:51.746Z,14.85
2018-11-05T13:10:20.830Z,14.79
2018-11-05T13:12:49.963Z,14.72
2018-11-05T13:15:19.053Z,14.59
2018-11-05T13:17:47.957Z,14.67
2018-11-05T13:20:18.963Z,14.76
2018-11-05T13:22:48.184Z,14.82
2018-11-05T13:25:17.095Z,14.90
2018-11-05T13:27:47.226Z,14.66
2018-11-05T13:30:16.498Z,14.64
2018-11-05T13:32:45.836Z,14.60
2018-11-05T13:35:16.043Z,14.66
2018-11-05T13:37:45.691Z,14.70
2018-11-05T13:40:15.547Z,14.73
2018-11-05T13:42:44.904Z,14.66
2018-11-05T13:45:14.504Z,14.58
2018-11-05T13:47:44.273Z,14.65
2018-11-05T13:50:13.275Z,14.64
2018-11-05T13:52:42.204Z,14.70
2018-11-05T13:55:14.423Z,14.74
2018-11-05T13:57:44.797Z,14.77
2018-11-05T14:00:14.864Z,14.78
2018-11-05T14:02:43.883Z,14.91
2018-11-05T14:05:13.163Z,14.73
2018-11-05T14:07:42.232Z,14.68
2018-11-05T14:10:16.802Z,14.76
2018-11-05T14:12:46.415Z,14.71
2018-11-05T14:15:15.355Z,14.71
2018-11-05T14:17:44.906Z,14.72
2018-11-05T14:20:14.826Z,14.65
2018-11-05T14:22:43.947Z,14.70
2018-11-05T14:25:16.022Z,14.55
2018-11-05T14:27:46.331Z,14.46
2018-11-05T14:30:15.402Z,14.30
2018-11-05T14:32:46.759Z,14.16
2018-11-05T14:35:15.838Z,14.19
2018-11-05T14:37:45.154Z,14.15
2018-11-05T14:40:15.465Z,14.17
2018-11-05T14:42:44.485Z,14.22
2018-11-05T14:45:14.703Z,14.39
2018-11-05T14:47:44.627Z,14.41
2018-11-05T14:50:15.106Z,14.50
2018-11-05T14:52:44.110Z,14.59
2018-11-05T14:55:14.877Z,14.53
2018-11-05T14:57:44.999Z,14.51
2018-11-05T15:00:16.033Z,14.55
2018-11-05T15:02:45.712Z,14.55
2018-11-05T15:05:15.140Z,14.50
2018-11-05T15:07:45.137Z,14.51
2018-11-05T15:10:16.253Z,14.50
2018-11-05T15:12:45.387Z,14.43
2018-11-05T15:15:14.910Z,14.35
2018-11-05T15:17:44.411Z,14.22
2018-11-05T15:20:17.917Z,14.09
2018-11-05T15:22:46.708Z,13.84
2018-11-05T15:25:16.022Z,13.83
2018-11-05T15:27:45.024Z,13.80
2018-11-05T15:30:16.077Z,13.70
2018-11-05T15:32:45.455Z,13.55
2018-11-05T15:35:14.726Z,13.48
2018-11-05T15:37:44.162Z,13.29
2018-11-05T15:40:16.203Z,13.16
2018-11-05T15:42:45.214Z,13.03
2018-11-05T15:45:15.530Z,12.84
2018-11-05T15:47:44.572Z,12.73
2018-11-05T15:50:14.952Z,12.48
2018-11-05T15:52:44.529Z,12.47
2018-11-05T15:55:13.359Z,12.27
2018-11-05T15:57:42.342Z,12.17
2018-11-05T16:00:16.158Z,12.00
2018-11-05T16:02:46.293Z,11.82
2018-11-05T16:05:15.366Z,11.69
2018-11-05T16:07:44.433Z,11.57
2018-11-05T16:10:13.485Z,11.38
2018-11-05T16:12:42.519Z,11.27
2018-11-05T16:15:12.177Z,11.18
2018-11-05T16:17:47.835Z,11.16
2018-11-05T16:20:18.134Z,11.06
2018-11-05T16:22:48.068Z,10.92
2018-11-05T16:25:17.087Z,10.82
2018-11-05T16:27:46.125Z,10.73
2018-11-05T16:30:16.706Z,10.62
2018-11-05T16:32:46.228Z,10.56
2018-11-05T16:35:15.272Z,10.48
2018-11-05T16:37:44.238Z,10.43
2018-11-05T16:40:14.583Z,10.40
2018-11-05T16:42:44.220Z,10.28
2018-11-05T16:45:13.219Z,10.16
2018-11-05T16:47:42.631Z,10.04
2018-11-05T16:50:15.194Z,9.98
2018-11-05T16:52:44.297Z,9.89
2018-11-05T16:55:14.178Z,9.79
2018-11-05T16:57:43.650Z,9.81
2018-11-05T17:00:13.231Z,9.81
2018-11-05T17:02:42.981Z,9.64
2018-11-05T17:05:11.895Z,9.55
2018-11-05T17:07:41.011Z,9.45
2018-11-05T17:10:11.215Z,9.35
2018-11-05T17:12:40.507Z,9.25
2018-11-05T17:15:10.819Z,9.17
2018-11-05T17:17:40.306Z,9.15
2018-11-05T17:20:11.770Z,9.10
2018-11-05T17:22:41.511Z,9.15
2018-11-05T17:25:11.226Z,9.14
2018-11-05T17:27:40.425Z,9.07
2018-11-05T17:30:12.829Z,9.05
2018-11-05T17:32:42.532Z,8.95
2018-11-05T17:35:11.806Z,8.91
2018-11-05T17:37:40.899Z,8.90
2018-11-05T17:40:12.169Z,8.86
2018-11-05T17:42:41.462Z,8.76
2018-11-05T17:45:11.996Z,8.70
2018-11-05T17:47:41.027Z,8.66
2018-11-05T17:50:12.200Z,8.64
2018-11-05T17:52:41.414Z,8.61
2018-11-05T17:55:11.289Z,8.59
2018-11-05T17:57:41.127Z,8.56
2018-11-05T18:00:13.851Z,8.53
2018-11-05T18:02:42.862Z,8.54
2018-11-05T18:05:11.866Z,8.48
2018-11-05T18:07:40.889Z,8.46
2018-11-05T18:10:09.886Z,8.59
2018-11-05T18:12:39.007Z,8.48
2018-11-05T18:15:09.326Z,8.42
2018-11-05T18:17:38.778Z,8.43
2018-11-05T18:20:08.987Z,8.39
2018-11-05T18:22:37.984Z,8.40
2018-11-05T18:25:08.882Z,8.40
2018-11-05T18:27:37.954Z,8.42
2018-11-05T18:30:07.739Z,8.38
2018-11-05T18:32:36.759Z,8.38
2018-11-05T18:35:07.435Z,8.40
2018-11-05T18:37:36.507Z,8.47
2018-11-05T18:40:08.022Z,8.45
2018-11-05T18:42:37.087Z,8.43
2018-11-05T18:45:07.033Z,8.46
2018-11-05T18:47:36.189Z,8.40
2018-11-05T18:50:07.547Z,8.37
2018-11-05T18:52:37.674Z,8.42
2018-11-05T18:55:08.700Z,8.43
2018-11-05T18:57:38.241Z,8.43
2018-11-05T19:00:20.570Z,8.49
2018-11-05T19:02:50.262Z,8.48
2018-11-05T19:05:19.930Z,8.44
2018-11-05T19:07:49.143Z,8.39
2018-11-05T19:10:18.125Z,8.55
2018-11-05T19:12:47.647Z,8.49
2018-11-05T19:15:16.904Z,8.43
2018-11-05T19:17:46.554Z,8.41
2018-11-05T19:20:15.708Z,8.41
2018-11-05T19:22:45.161Z,8.36
2018-11-05T19:25:14.738Z,8.31
2018-11-05T19:27:43.865Z,8.24
2018-11-05T19:30:16.060Z,8.19
2018-11-05T19:32:45.435Z,8.18
2018-11-05T19:35:14.413Z,8.12
2018-11-05T19:37:43.607Z,8.04
2018-11-05T19:40:13.596Z,7.94
2018-11-05T19:42:43.725Z,7.89
2018-11-05T19:45:14.483Z,8.00
2018-11-05T19:47:43.594Z,8.10
2018-11-05T19:50:14.517Z,8.02
2018-11-05T19:52:44.445Z,8.07
2018-11-05T19:55:14.442Z,7.94
2018-11-05T19:57:44.210Z,7.91
2018-11-05T20:00:22.526Z,7.82
2018-11-05T20:02:51.663Z,7.70
2018-11-05T20:05:20.660Z,7.73
2018-11-05T20:07:50.489Z,7.70
2018-11-05T20:10:19.579Z,7.67
2018-11-05T20:12:48.622Z,7.58
2018-11-05T20:15:17.717Z,7.65
2018-11-05T20:17:47.526Z,7.61
2018-11-05T20:20:17.796Z,7.59
2018-11-05T20:22:46.858Z,7.49
2018-11-05T20:25:15.859Z,7.51
2018-11-05T20:27:45.084Z,7.46
2018-11-05T20:30:30.490Z,7.43
2018-11-05T20:33:00.099Z,7.43
2018-11-05T20:35:28.671Z,7.40
2018-11-05T20:37:57.674Z,7.36
2018-11-05T20:40:26.755Z,7.32
2018-11-05T20:42:55.822Z,7.20
2018-11-05T20:45:25.080Z,7.20
2018-11-05T20:47:54.215Z,7.15
2018-11-05T20:50:23.170Z,7.15
2018-11-05T20:52:52.207Z,7.10
2018-11-05T20:55:21.170Z,7.07
2018-11-05T20:57:50.918Z,7.10
2018-11-05T21:00:21.058Z,7.06
2018-11-05T21:02:50.095Z,7.16
2018-11-05T21:05:19.108Z,7.17
2018-11-05T21:07:48.126Z,7.20
2018-11-05T21:10:17.099Z,7.14
2018-11-05T21:12:46.119Z,7.06
2018-11-05T21:15:17.257Z,7.19
2018-11-05T21:17:47.050Z,7.13
2018-11-05T21:20:16.154Z,7.18
2018-11-05T21:22:45.610Z,7.43
2018-11-05T21:25:21.032Z,7.47
2018-11-05T21:27:50.020Z,7.43
2018-11-05T21:30:20.258Z,7.45
2018-11-05T21:32:49.305Z,7.41
2018-11-05T21:35:19.367Z,7.40
2018-11-05T21:37:48.372Z,7.38
2018-11-05T21:40:18.178Z,7.37
2018-11-05T21:42:47.182Z,7.28
2018-11-05T21:45:16.731Z,7.27
2018-11-05T21:47:46.209Z,7.28
2018-11-05T21:50:16.511Z,7.24
2018-11-05T21:52:45.835Z,7.18
2018-11-05T21:55:14.811Z,7.07
2018-11-05T21:57:45.290Z,7.05
2018-11-05T22:00:16.797Z,6.93
2018-11-05T22:02:51.030Z,6.78
2018-11-05T22:05:19.992Z,6.62
2018-11-05T22:07:49.169Z,6.58
2018-11-05T22:10:18.130Z,6.62
2018-11-05T22:12:47.723Z,6.62
2018-11-05T22:15:16.691Z,6.68
2018-11-05T22:17:45.728Z,6.58
2018-11-05T22:20:14.770Z,6.58
2018-11-05T22:22:43.841Z,6.63
2018-11-05T22:25:12.928Z,6.43
2018-11-05T22:27:42.078Z,6.31
2018-11-05T22:30:11.797Z,6.38
2018-11-05T22:32:41.470Z,6.36
2018-11-05T22:35:10.470Z,6.30
2018-11-05T22:37:39.466Z,6.18
2018-11-05T22:40:10.918Z,6.08
2018-11-05T22:42:40.719Z,6.04
2018-11-05T22:45:10.614Z,6.02
2018-11-05T22:47:39.612Z,6.00
2018-11-05T22:50:08.840Z,5.98
2018-11-05T22:52:38.220Z,5.89
2018-11-05T22:55:07.370Z,5.85
2018-11-05T22:57:36.402Z,5.86
2018-11-05T23:00:08.690Z,5.92
2018-11-05T23:02:40.520Z,5.89
2018-11-05T23:05:09.482Z,5.87
2018-11-05T23:07:38.474Z,5.88
2018-11-05T23:10:07.456Z,6.07
2018-11-05T23:12:36.425Z,6.15
2018-11-05T23:15:05.669Z,6.35
2018-11-05T23:17:34.655Z,6.42
2018-11-05T23:20:03.691Z,6.70
2018-11-05T23:22:32.691Z,6.92
2018-11-05T23:25:01.655Z,7.12
2018-11-05T23:27:30.651Z,7.15
2018-11-05T23:29:59.650Z,7.14
2018-11-05T23:32:28.635Z,7.07
2018-11-05T23:34:57.653Z,7.07
2018-11-05T23:37:26.638Z,6.98
2018-11-05T23:39:55.645Z,6.86
2018-11-05T23:42:24.616Z,6.83
2018-11-05T23:44:53.809Z,6.83
2018-11-05T23:47:27.292Z,6.82
2018-11-05T23:49:56.628Z,6.78
2018-11-05T23:52:26.050Z,6.86
2018-11-05T23:54:55.042Z,6.82
2018-11-05T23:57:24.115Z,6.79
2018-11-05T23:59:53.102Z,6.79
